Time;durP1;ratioP1;P1;durP2;ratioP2;P2;SDS_P1;SDS_P2;PMS_P1;PMS_P2;Temp;Humidity;BMP_temperature;BMP_pressure;BME280_temperature;BME280_humidity;BME280_pressure;Samples;Min_cycle;Max_cycle;Signal;HPM_P1;HPM_P2
2022/10/24 00:02:08;;;;;;;11.60;9.73;;;;;;;12.60;nan;95771.34;5071151;28;20798;-71
2022/10/24 00:04:37;;;;;;;13.55;10.07;;;;;;;12.60;nan;95768.78;5071288;28;20213;-71
2022/10/24 00:07:06;;;;;;;13.57;10.00;;;;;;;12.43;nan;95770.97;5067545;28;20221;-71
2022/10/24 00:09:34;;;;;;;16.00;9.52;;;;;;;12.53;nan;95764.75;5068427;28;20936;-71
2022/10/24 00:12:02;;;;;;;10.77;9.32;;;;;;;12.67;nan;95764.31;5069783;28;20210;-70
2022/10/24 00:14:29;;;;;;;10.40;9.20;;;;;;;12.75;nan;95765.75;5070313;28;20210;-71
2022/10/24 00:16:56;;;;;;;9.68;8.35;;;;;;;12.83;nan;95766.38;5070867;28;20666;-71
2022/10/24 00:19:23;;;;;;;13.60;7.57;;;;;;;12.79;nan;95761.41;5070386;28;20221;-71
2022/10/24 00:21:50;;;;;;;7.93;7.15;;;;;;;12.75;nan;95755.56;5070221;28;20241;-72
2022/10/24 00:24:18;;;;;;;12.68;8.43;;;;;;;12.74;nan;95751.31;5070306;28;20254;-71
2022/10/24 00:26:45;;;;;;;7.93;7.10;;;;;;;12.75;nan;95757.25;5070582;28;20275;-71
2022/10/24 00:29:12;;;;;;;9.35;8.43;;;;;;;12.81;nan;95742.63;5070261;28;20274;-71
2022/10/24 00:31:39;;;;;;;8.95;7.95;;;;;;;12.77;nan;95750.41;5069235;28;20682;-71
2022/10/24 00:34:06;;;;;;;12.50;9.50;;;;;;;12.65;nan;95741.41;5069392;28;20250;-71
2022/10/24 00:36:33;;;;;;;9.20;8.27;;;;;;;12.42;nan;95744.66;5070192;28;20267;-72
2022/10/24 00:38:59;;;;;;;9.02;8.13;;;;;;;12.50;nan;95750.38;5070763;28;20237;-71
2022/10/24 00:41:33;;;;;;;10.27;7.45;;;;;;;12.44;nan;95750.53;5070594;28;20209;-71
2022/10/24 00:44:14;;;;;;;11.70;7.93;;;;;;;12.37;nan;95750.78;5070693;28;20619;-71
2022/10/24 00:46:44;;;;;;;9.45;7.95;;;;;;;12.45;nan;95738.63;5071405;28;20767;-72
2022/10/24 00:49:14;;;;;;;8.85;7.30;;;;;;;12.36;nan;95749.94;5072932;28;20208;-72
2022/10/24 00:51:42;;;;;;;8.77;7.40;;;;;;;12.19;nan;95752.97;5071605;28;20626;-72
2022/10/24 00:54:11;;;;;;;10.82;7.53;;;;;;;12.32;nan;95758.56;5072559;28;20209;-72
2022/10/24 00:56:43;;;;;;;8.18;7.47;;;;;;;12.29;nan;95745.91;5072455;28;20213;-72
2022/10/24 00:59:12;;;;;;;10.35;7.93;;;;;;;12.17;nan;95754.72;5072363;28;20711;-72
2022/10/24 01:01:40;;;;;;;11.52;9.27;;;;;;;12.23;nan;95757.09;5072538;28;20238;-71
2022/10/24 01:04:07;;;;;;;11.02;8.43;;;;;;;12.29;nan;95750.16;5072761;28;20302;-71
2022/10/24 01:06:46;;;;;;;11.68;9.55;;;;;;;12.03;nan;95751.75;5071547;28;20858;-72
2022/10/24 01:09:34;;;;;;;11.27;8.95;;;;;;;11.97;nan;95746.81;5074833;28;20259;-71
2022/10/24 01:12:16;;;;;;;10.48;8.32;;;;;;;12.11;nan;95754.94;5073170;28;20210;-71
2022/10/24 01:14:52;;;;;;;9.10;8.25;;;;;;;12.20;nan;95752.09;5075400;28;20201;-71
2022/10/24 01:17:26;;;;;;;8.18;7.38;;;;;;;12.17;nan;95752.19;5074865;28;20282;-71
2022/10/24 01:20:26;;;;;;;8.88;7.47;;;;;;;12.10;nan;95747.31;5075896;28;20695;-71
2022/10/24 01:23:08;;;;;;;10.45;8.65;;;;;;;11.85;nan;95752.28;5062015;28;20220;-72
2022/10/24 01:25:47;;;;;;;7.72;7.03;;;;;;;11.67;nan;95753.56;5075121;28;20270;-72
2022/10/24 01:28:19;;;;;;;11.52;8.35;;;;;;;11.65;nan;95759.56;5074900;28;20214;-71
2022/10/24 01:30:50;;;;;;;12.30;8.30;;;;;;;11.51;nan;95758.22;5075807;28;20286;-72
2022/10/24 01:33:25;;;;;;;9.27;8.32;;;;;;;11.68;nan;95759.47;5075444;28;20233;-71
2022/10/24 01:35:56;;;;;;;11.90;7.90;;;;;;;11.77;nan;95759.28;5075527;28;20201;-72
2022/10/24 01:38:30;;;;;;;9.35;7.93;;;;;;;11.34;nan;95752.75;5075092;28;20259;-72
2022/10/24 01:41:00;;;;;;;11.30;8.48;;;;;;;11.40;nan;95754.28;5075046;28;20345;-71
2022/10/24 01:43:31;;;;;;;10.93;7.38;;;;;;;11.17;nan;95747.22;5075131;28;20197;-71
2022/10/24 01:46:03;;;;;;;7.80;6.60;;;;;;;10.78;nan;95754.13;5074001;28;20227;-72
2022/10/24 01:48:34;;;;;;;13.15;7.47;;;;;;;10.54;nan;95752.97;5075648;28;20282;-73
2022/10/24 01:51:03;;;;;;;8.52;6.95;;;;;;;10.84;nan;95759.91;5074959;28;20234;-72
2022/10/24 01:53:31;;;;;;;6.82;6.22;;;;;;;10.87;nan;95742.03;5074485;28;20514;-72
2022/10/24 01:55:58;;;;;;;7.35;6.68;;;;;;;11.20;nan;95747.16;5074483;28;21281;-72
2022/10/24 01:58:25;;;;;;;8.00;7.30;;;;;;;11.03;nan;95744.19;5074090;28;20233;-72
2022/10/24 02:00:55;;;;;;;7.55;6.90;;;;;;;10.98;nan;95751.09;5075583;28;20266;-72
2022/10/24 02:03:30;;;;;;;7.72;6.55;;;;;;;11.13;nan;95745.66;5075443;28;20758;-71
2022/10/24 02:06:01;;;;;;;7.68;6.93;;;;;;;10.93;nan;95747.81;5074231;28;20205;-71
2022/10/24 02:08:33;;;;;;;7.53;6.35;;;;;;;10.96;nan;95752.84;5073621;28;20690;-71
2022/10/24 02:11:04;;;;;;;9.65;6.53;;;;;;;10.90;nan;95757.19;5074641;28;20269;-71
2022/10/24 02:13:36;;;;;;;9.63;7.38;;;;;;;10.63;nan;95751.94;5074002;28;20205;-72
2022/10/24 02:16:04;;;;;;;9.32;6.22;;;;;;;10.75;nan;95746.56;5074749;28;20263;-72
2022/10/24 02:18:33;;;;;;;7.22;6.63;;;;;;;10.99;nan;95757.84;5073739;28;20229;-72
2022/10/24 02:21:08;;;;;;;7.72;6.93;;;;;;;10.82;nan;95751.47;5073187;28;20266;-72
2022/10/24 02:23:39;;;;;;;7.63;6.80;;;;;;;10.91;nan;95763.94;5074365;28;20258;-72
2022/10/24 02:26:11;;;;;;;11.65;7.88;;;;;;;10.80;nan;95757.47;5074456;28;20265;-72
2022/10/24 02:28:43;;;;;;;8.05;6.70;;;;;;;11.11;nan;95748.22;5073679;28;20213;-71
2022/10/24 02:31:16;;;;;;;9.77;7.07;;;;;;;11.27;nan;95743.59;5074947;28;20723;-72
2022/10/24 02:33:45;;;;;;;9.80;7.10;;;;;;;11.38;nan;95751.78;5074709;28;20921;-71
2022/10/24 02:36:17;;;;;;;9.23;6.78;;;;;;;11.42;nan;95757.63;5074151;28;21176;-71
2022/10/24 02:38:47;;;;;;;12.43;8.63;;;;;;;11.25;nan;95758.06;5072696;28;20783;-71
2022/10/24 02:41:20;;;;;;;11.48;7.88;;;;;;;11.32;nan;95754.50;5074050;28;20756;-71
2022/10/24 02:43:49;;;;;;;10.30;7.07;;;;;;;11.43;nan;95762.66;5073965;28;20656;-72
2022/10/24 02:46:18;;;;;;;9.40;7.15;;;;;;;11.50;nan;95751.47;5073745;28;20764;-71
2022/10/24 02:48:51;;;;;;;9.52;7.82;;;;;;;11.44;nan;95753.31;5072877;28;20322;-71
2022/10/24 02:51:21;;;;;;;8.90;8.07;;;;;;;11.42;nan;95757.63;5074076;28;20268;-71
2022/10/24 02:53:48;;;;;;;12.60;7.38;;;;;;;11.21;nan;95753.91;5073784;28;20274;-71
2022/10/24 02:56:14;;;;;;;9.18;7.35;;;;;;;11.34;nan;95755.28;5073135;28;20683;-72
2022/10/24 02:58:41;;;;;;;9.38;8.13;;;;;;;11.26;nan;95754.63;5072874;28;20656;-71
2022/10/24 03:01:08;;;;;;;7.90;7.18;;;;;;;11.35;nan;95746.78;5073447;28;20645;-72
2022/10/24 03:03:35;;;;;;;7.97;7.18;;;;;;;11.33;nan;95751.06;5073908;28;20237;-72
2022/10/24 03:06:03;;;;;;;8.75;7.85;;;;;;;11.24;nan;95747.03;5074270;28;20201;-72
2022/10/24 03:08:30;;;;;;;9.05;7.40;;;;;;;11.31;nan;95749.44;5073123;28;20237;-72
2022/10/24 03:10:57;;;;;;;8.45;7.55;;;;;;;11.29;nan;95743.53;5074137;28;20229;-71
2022/10/24 03:13:23;;;;;;;8.63;7.70;;;;;;;11.41;nan;95746.59;5073942;28;20258;-72
2022/10/24 03:15:50;;;;;;;7.80;7.05;;;;;;;11.45;nan;95748.19;5074221;28;20286;-72
2022/10/24 03:18:17;;;;;;;8.70;6.68;;;;;;;11.16;nan;95745.56;5073040;28;20320;-71
2022/10/24 03:20:43;;;;;;;6.95;6.28;;;;;;;11.07;nan;95743.25;5075144;28;20205;-72
2022/10/24 03:23:12;;;;;;;6.38;5.82;;;;;;;11.15;nan;95743.88;5074408;28;20258;-72
2022/10/24 03:25:39;;;;;;;7.90;6.90;;;;;;;11.16;nan;95741.28;5075605;28;21577;-72
2022/10/24 03:28:05;;;;;;;6.35;5.82;;;;;;;10.98;nan;95740.91;5073320;28;20213;-71
2022/10/24 03:30:32;;;;;;;7.28;6.22;;;;;;;11.16;nan;95741.28;5072567;28;20253;-71
2022/10/24 03:32:59;;;;;;;8.40;7.43;;;;;;;11.26;nan;95741.91;5073516;28;20202;-70
2022/10/24 03:35:25;;;;;;;7.82;5.90;;;;;;;11.24;nan;95744.50;5074370;28;20214;-71
2022/10/24 03:37:52;;;;;;;7.80;5.97;;;;;;;11.29;nan;95741.84;5074770;28;20210;-72
2022/10/24 03:40:20;;;;;;;6.55;5.30;;;;;;;11.21;nan;95743.72;5073104;28;20197;-71
2022/10/24 03:42:47;;;;;;;7.53;6.40;;;;;;;10.80;nan;95748.13;5072637;28;20214;-71
2022/10/24 03:45:14;;;;;;;7.60;5.28;;;;;;;10.90;nan;95749.56;5073400;28;20623;-72
2022/10/24 03:47:41;;;;;;;8.52;5.90;;;;;;;10.96;nan;95753.69;5073078;28;20249;-71
2022/10/24 03:50:09;;;;;;;10.88;6.15;;;;;;;11.09;nan;95749.97;5072728;28;20274;-69
2022/10/24 03:52:35;;;;;;;11.90;6.50;;;;;;;11.16;nan;95745.56;5072135;28;20292;-72
2022/10/24 03:55:02;;;;;;;23.27;14.35;;;;;;;11.27;nan;95742.75;5073633;28;20275;-71
2022/10/24 03:57:30;;;;;;;33.10;19.02;;;;;;;10.96;nan;95743.50;5072749;28;20589;-71
2022/10/24 03:59:57;;;;;;;15.55;9.95;;;;;;;10.86;nan;95742.06;5072255;28;20297;-72
2022/10/24 04:02:23;;;;;;;8.45;6.72;;;;;;;10.44;nan;95743.88;5072108;28;20318;-71
2022/10/24 04:04:50;;;;;;;8.07;6.03;;;;;;;10.38;nan;95744.03;5073508;28;20266;-72
2022/10/24 04:07:17;;;;;;;11.35;6.25;;;;;;;10.36;nan;95745.75;5072524;28;20313;-71
2022/10/24 04:09:44;;;;;;;7.15;6.15;;;;;;;10.27;nan;95740.88;5072734;28;20209;-72
2022/10/24 04:12:10;;;;;;;6.15;5.47;;;;;;;10.07;nan;95734.47;5072249;28;20264;-72
2022/10/24 04:14:38;;;;;;;9.77;6.30;;;;;;;9.90;nan;95727.19;5072966;28;20197;-72
2022/10/24 04:17:05;;;;;;;10.93;5.75;;;;;;;10.04;nan;95729.47;5074076;28;20290;-71
2022/10/24 04:19:32;;;;;;;29.13;19.50;;;;;;;10.34;nan;95727.19;5074150;28;20259;-72
2022/10/24 04:21:59;;;;;;;48.42;24.85;;;;;;;10.53;nan;95728.44;5072048;28;20205;-72
2022/10/24 04:24:26;;;;;;;17.88;12.95;;;;;;;10.61;nan;95731.63;5073349;28;20667;-71
2022/10/24 04:26:53;;;;;;;12.30;9.00;;;;;;;10.70;nan;95741.56;5072811;28;20607;-71
2022/10/24 04:29:20;;;;;;;14.23;7.45;;;;;;;10.63;nan;95734.97;5072439;28;20425;-72
2022/10/24 04:31:48;;;;;;;18.65;7.18;;;;;;;10.68;nan;95743.31;5071313;28;20251;-72
2022/10/24 04:34:15;;;;;;;12.52;7.10;;;;;;;10.70;nan;95746.66;5072698;28;20272;-72
2022/10/24 04:36:41;;;;;;;13.63;8.25;;;;;;;10.73;nan;95746.59;5072397;28;20214;-72
2022/10/24 04:39:08;;;;;;;34.35;19.33;;;;;;;10.84;nan;95742.09;5071620;28;20237;-71
2022/10/24 04:41:35;;;;;;;42.30;19.35;;;;;;;10.96;nan;95757.91;5070216;28;20263;-72
2022/10/24 04:44:02;;;;;;;83.50;44.38;;;;;;;11.03;nan;95756.91;5074102;28;20691;-71
2022/10/24 04:46:29;;;;;;;60.92;32.35;;;;;;;11.14;nan;95752.38;5075907;28;20642;-71
2022/10/24 04:48:57;;;;;;;85.85;44.28;;;;;;;11.14;nan;95747.28;5075727;28;20205;-71
2022/10/24 04:51:24;;;;;;;96.80;47.83;;;;;;;11.21;nan;95754.75;5076753;28;20225;-71
2022/10/24 04:53:52;;;;;;;85.22;41.75;;;;;;;11.11;nan;95758.41;5077952;28;20288;-71
2022/10/24 04:56:20;;;;;;;62.35;33.72;;;;;;;10.95;nan;95758.78;5077082;28;20209;-70
2022/10/24 04:58:47;;;;;;;54.70;29.40;;;;;;;10.97;nan;95759.59;5057986;28;20205;-70
2022/10/24 05:01:14;;;;;;;66.38;34.63;;;;;;;11.16;nan;95750.63;5074742;28;20851;-71
2022/10/24 05:03:40;;;;;;;44.33;22.98;;;;;;;11.18;nan;95748.91;5075405;28;21344;-71
2022/10/24 05:06:09;;;;;;;36.75;20.73;;;;;;;11.33;nan;95753.63;5075862;28;20262;-70
2022/10/24 05:08:36;;;;;;;41.67;24.52;;;;;;;11.00;nan;95755.28;5076244;28;20208;-70
2022/10/24 05:11:03;;;;;;;32.80;19.00;;;;;;;10.80;nan;95750.66;5075487;28;20698;-70
2022/10/24 05:13:30;;;;;;;97.78;42.97;;;;;;;11.05;nan;95761.09;5075266;28;20206;-72
2022/10/24 05:15:57;;;;;;;54.63;26.38;;;;;;;11.31;nan;95757.91;5076032;28;20592;-71
2022/10/24 05:18:23;;;;;;;57.05;30.60;;;;;;;11.48;nan;95758.28;5075485;28;20282;-71
2022/10/24 05:20:50;;;;;;;68.15;33.40;;;;;;;11.45;nan;95765.16;5076078;28;20233;-72
2022/10/24 05:23:18;;;;;;;59.67;30.50;;;;;;;11.71;nan;95759.41;5074456;28;20206;-72
2022/10/24 05:25:45;;;;;;;59.17;24.92;;;;;;;11.58;nan;95764.00;5074876;28;21702;-71
2022/10/24 05:28:12;;;;;;;41.50;20.77;;;;;;;11.88;nan;95755.53;5075064;28;20210;-72
2022/10/24 05:30:38;;;;;;;46.80;19.85;;;;;;;12.10;nan;95753.25;5074222;28;20278;-72
2022/10/24 05:33:05;;;;;;;33.33;15.77;;;;;;;12.09;nan;95761.78;5074320;28;20213;-71
2022/10/24 05:35:32;;;;;;;29.30;13.85;;;;;;;11.98;nan;95761.22;5075575;28;20214;-71
2022/10/24 05:37:59;;;;;;;21.20;12.40;;;;;;;12.11;nan;95757.47;5075834;28;20278;-71
2022/10/24 05:40:27;;;;;;;21.30;12.32;;;;;;;12.37;nan;95761.81;5075019;28;20251;-71
2022/10/24 05:42:54;;;;;;;21.70;13.35;;;;;;;12.70;nan;95772.69;5074838;28;20212;-71
2022/10/24 05:45:21;;;;;;;24.25;13.52;;;;;;;12.44;nan;95767.53;5074943;28;20210;-72
2022/10/24 05:47:48;;;;;;;17.67;9.75;;;;;;;12.39;nan;95774.50;5075303;28;20637;-71
2022/10/24 05:50:15;;;;;;;18.00;11.23;;;;;;;12.49;nan;95773.34;5075652;28;20267;-71
2022/10/24 05:52:42;;;;;;;19.98;10.65;;;;;;;12.87;nan;95778.09;5074780;28;20238;-71
2022/10/24 05:55:10;;;;;;;23.77;12.50;;;;;;;13.12;nan;95779.88;5074321;28;20213;-73
2022/10/24 05:57:39;;;;;;;23.88;14.55;;;;;;;13.40;nan;95780.69;5076200;28;20562;-71
2022/10/24 06:00:07;;;;;;;28.00;11.93;;;;;;;13.28;nan;95779.41;5074701;28;20289;-72
2022/10/24 06:02:34;;;;;;;30.75;13.05;;;;;;;13.30;nan;95787.00;5073943;28;20841;-71
2022/10/24 06:05:01;;;;;;;27.75;13.95;;;;;;;13.58;nan;95787.75;5076263;28;20210;-71
2022/10/24 06:07:28;;;;;;;31.27;13.38;;;;;;;13.84;nan;95794.53;5076228;28;20229;-73
2022/10/24 06:09:54;;;;;;;28.17;15.10;;;;;;;13.84;nan;95788.59;5075243;28;20209;-71
2022/10/24 06:12:21;;;;;;;38.30;17.95;;;;;;;14.36;nan;95795.22;5074195;28;20229;-71
2022/10/24 06:14:49;;;;;;;43.78;18.60;;;;;;;14.37;nan;95791.75;5074302;28;20259;-72
2022/10/24 06:17:16;;;;;;;44.90;16.27;;;;;;;14.57;nan;95788.53;5075035;28;20258;-72
2022/10/24 06:19:43;;;;;;;38.85;15.63;;;;;;;14.42;nan;95781.41;5074892;28;20289;-72
2022/10/24 06:22:11;;;;;;;27.50;14.60;;;;;;;14.13;nan;95780.72;5073558;28;20229;-72
2022/10/24 06:24:39;;;;;;;27.92;13.32;;;;;;;14.11;nan;95795.25;5074275;28;20270;-71
2022/10/24 06:27:07;;;;;;;23.95;11.82;;;;;;;13.74;nan;95794.91;5074820;28;20266;-72
2022/10/24 06:29:34;;;;;;;32.50;12.48;;;;;;;13.45;nan;95800.97;5074355;28;20647;-71
2022/10/24 06:32:03;;;;;;;19.42;11.45;;;;;;;13.72;nan;95799.22;5073576;28;20278;-72
2022/10/24 06:34:30;;;;;;;32.13;10.68;;;;;;;13.86;nan;95797.84;5074256;28;20499;-72
2022/10/24 06:36:57;;;;;;;26.27;11.15;;;;;;;14.34;nan;95801.31;5073461;28;20654;-72
2022/10/24 06:39:23;;;;;;;36.40;13.05;;;;;;;14.47;nan;95805.09;5074832;28;20629;-71
2022/10/24 06:41:50;;;;;;;34.20;13.90;;;;;;;14.66;nan;95805.22;5073429;28;20201;-72
2022/10/24 06:44:17;;;;;;;37.53;12.40;;;;;;;14.53;nan;95808.25;5074434;28;20318;-72
2022/10/24 06:46:43;;;;;;;32.72;13.73;;;;;;;14.50;nan;95804.97;5074227;28;20287;-72
2022/10/24 06:49:12;;;;;;;38.38;14.65;;;;;;;14.56;nan;95820.13;5074133;28;21761;-72
2022/10/24 06:51:38;;;;;;;32.50;14.77;;;;;;;14.91;nan;95805.97;5073716;28;20601;-73
2022/10/24 06:54:05;;;;;;;23.98;14.98;;;;;;;15.40;nan;95812.53;5074904;28;20213;-73
2022/10/24 06:56:32;;;;;;;22.67;13.90;;;;;;;15.87;nan;95818.28;5074243;28;20302;-74
2022/10/24 06:58:59;;;;;;;28.55;14.80;;;;;;;16.36;nan;95808.47;5076061;28;20209;-73
2022/10/24 07:01:26;;;;;;;18.02;10.30;;;;;;;16.33;nan;95806.88;5074166;28;20233;-73
2022/10/24 07:03:54;;;;;;;26.65;10.30;;;;;;;16.20;nan;95812.63;5072718;28;20209;-71
2022/10/24 07:06:24;;;;;;;15.80;11.20;;;;;;;16.17;nan;95815.31;5070100;28;20816;-72
2022/10/24 07:08:51;;;;;;;15.02;10.80;;;;;;;15.76;nan;95811.97;5073904;28;20214;-72
2022/10/24 07:11:18;;;;;;;23.23;11.55;;;;;;;15.50;nan;95810.44;5071820;28;20291;-73
2022/10/24 07:13:45;;;;;;;17.10;10.23;;;;;;;15.33;nan;95811.16;5072409;28;20270;-71
2022/10/24 07:16:12;;;;;;;11.18;9.77;;;;;;;15.72;nan;95813.00;5073158;28;20206;-71
2022/10/24 07:18:39;;;;;;;11.30;9.23;;;;;;;15.42;nan;95812.47;5071020;28;20202;-72
2022/10/24 07:21:08;;;;;;;14.60;9.93;;;;;;;15.44;nan;95805.56;5072912;28;20209;-71
2022/10/24 07:23:37;;;;;;;14.25;9.73;;;;;;;15.57;nan;95809.34;5072589;28;20209;-71
2022/10/24 07:26:06;;;;;;;17.85;11.70;;;;;;;15.62;nan;95807.41;5073047;28;20237;-72
2022/10/24 07:28:34;;;;;;;14.05;8.85;;;;;;;15.83;nan;95810.81;5072874;28;20233;-70
2022/10/24 07:31:01;;;;;;;18.48;9.27;;;;;;;16.20;nan;95800.63;5073338;28;20209;-70
2022/10/24 07:33:28;;;;;;;17.50;9.00;;;;;;;16.98;nan;95800.53;5071265;28;20230;-70
2022/10/24 07:35:55;;;;;;;13.50;8.27;;;;;;;18.08;nan;95805.41;5073387;28;20206;-70
2022/10/24 07:38:22;;;;;;;11.45;8.68;;;;;;;19.80;nan;95792.59;5073002;28;20749;-70
2022/10/24 07:40:51;;;;;;;14.60;9.48;;;;;;;21.12;nan;95788.84;5073310;28;20206;-71
2022/10/24 07:43:18;;;;;;;14.25;10.00;;;;;;;21.21;nan;95799.47;5072833;28;20638;-70
2022/10/24 07:45:45;;;;;;;12.98;7.13;;;;;;;20.72;nan;95804.28;5073470;28;20294;-71
2022/10/24 07:48:12;;;;;;;9.98;8.95;;;;;;;20.56;nan;95798.38;5071405;28;20761;-70
2022/10/24 07:50:43;;;;;;;13.68;7.15;;;;;;;20.24;nan;95795.16;5072605;28;20679;-71
2022/10/24 07:53:09;;;;;;;8.80;7.13;;;;;;;19.75;nan;95789.47;5074467;28;20234;-71
2022/10/24 07:55:38;;;;;;;16.42;9.02;;;;;;;20.65;nan;95775.41;5074337;28;20205;-73
2022/10/24 07:58:07;;;;;;;16.38;8.43;;;;;;;22.22;nan;95780.75;5073855;28;20633;-73
2022/10/24 08:00:34;;;;;;;14.55;9.05;;;;;;;24.77;nan;95776.69;5073609;28;20218;-70
2022/10/24 08:03:01;;;;;;;17.95;10.63;;;;;;;26.61;nan;95771.13;5072330;28;20238;-69
2022/10/24 08:05:28;;;;;;;13.40;8.93;;;;;;;27.90;nan;95763.19;5075088;28;20270;-73
2022/10/24 08:07:55;;;;;;;29.75;15.88;;;;;;;28.98;nan;95759.09;5073959;28;20229;-72
2022/10/24 08:10:22;;;;;;;9.65;8.65;;;;;;;29.51;nan;95750.50;5075207;28;20237;-71
2022/10/24 08:12:49;;;;;;;23.73;12.38;;;;;;;29.94;nan;95751.50;5074691;28;20316;-73
2022/10/24 08:15:17;;;;;;;9.80;7.68;;;;;;;30.44;nan;95752.44;5074237;28;20274;-74
2022/10/24 08:17:44;;;;;;;10.85;7.68;;;;;;;30.72;nan;95749.66;5074216;28;20209;-73
2022/10/24 08:20:11;;;;;;;8.57;7.50;;;;;;;30.95;nan;95749.91;5074592;28;20299;-73
2022/10/24 08:22:40;;;;;;;14.07;8.68;;;;;;;30.82;nan;95746.91;5073796;28;20201;-72
2022/10/24 08:25:10;;;;;;;14.80;8.73;;;;;;;31.12;nan;95754.25;5074849;28;20680;-74
2022/10/24 08:27:36;;;;;;;10.80;8.52;;;;;;;31.54;nan;95751.50;5074473;28;20292;-72
2022/10/24 08:30:04;;;;;;;15.48;9.45;;;;;;;31.13;nan;95750.66;5074616;28;20202;-73
2022/10/24 08:32:32;;;;;;;13.63;10.77;;;;;;;30.25;nan;95744.81;5073857;28;20226;-72
2022/10/24 08:34:59;;;;;;;14.55;10.40;;;;;;;30.88;nan;95741.84;5074906;28;20286;-73
2022/10/24 08:37:26;;;;;;;15.40;9.32;;;;;;;31.92;nan;95746.63;5075040;28;20274;-73
2022/10/24 08:39:54;;;;;;;20.92;10.25;;;;;;;31.43;nan;95738.69;5074282;28;20318;-73
2022/10/24 08:42:23;;;;;;;18.33;10.80;;;;;;;31.23;nan;95734.72;5073498;28;20318;-74
2022/10/24 08:44:50;;;;;;;10.80;9.65;;;;;;;31.50;nan;95731.81;5074277;28;20707;-74
2022/10/24 08:47:26;;;;;;;24.13;10.02;;;;;;;31.50;nan;95723.09;5074869;28;20627;-74
2022/10/24 08:49:58;;;;;;;33.40;10.75;;;;;;;31.39;nan;95725.09;5073844;28;20609;-75
2022/10/24 08:52:31;;;;;;;14.48;10.23;;;;;;;30.34;nan;95722.91;5073963;28;20260;-75
2022/10/24 08:55:00;;;;;;;16.80;9.48;;;;;;;28.94;nan;95723.75;5074306;28;20217;-74
2022/10/24 08:57:31;;;;;;;11.65;8.48;;;;;;;29.53;nan;95717.13;5074618;28;20803;-72
2022/10/24 09:00:02;;;;;;;20.52;10.48;;;;;;;30.59;nan;95710.75;5073813;28;21354;-75
2022/10/24 09:02:34;;;;;;;11.75;8.40;;;;;;;29.88;nan;95720.66;5073996;28;20332;-73
2022/10/24 09:05:14;;;;;;;13.90;8.82;;;;;;;28.89;nan;95715.53;5074444;28;21456;-74
2022/10/24 09:07:46;;;;;;;18.55;9.48;;;;;;;29.12;nan;95710.69;5074687;28;21145;-71
2022/10/24 09:10:18;;;;;;;13.85;9.88;;;;;;;28.53;nan;95708.53;5073731;28;20692;-73
2022/10/24 09:12:45;;;;;;;14.32;9.73;;;;;;;28.62;nan;95710.28;5073686;28;20278;-73
2022/10/24 09:15:15;;;;;;;12.63;9.27;;;;;;;28.57;nan;95704.66;5073921;28;20205;-73
2022/10/24 09:17:43;;;;;;;14.45;10.27;;;;;;;28.70;nan;95705.16;5074246;28;20380;-71
2022/10/24 09:20:21;;;;;;;16.58;9.23;;;;;;;29.13;nan;95703.66;5073066;28;20206;-72
2022/10/24 09:22:48;;;;;;;17.65;9.55;;;;;;;29.07;nan;95705.88;5073544;28;20262;-72
2022/10/24 09:25:18;;;;;;;21.73;10.45;;;;;;;28.25;nan;95698.06;5073741;28;20201;-72
2022/10/24 09:27:45;;;;;;;17.95;8.88;;;;;;;28.11;nan;95701.13;5073458;28;20650;-72
2022/10/24 09:30:17;;;;;;;15.13;8.65;;;;;;;28.15;nan;95697.25;5076513;28;20944;-73
2022/10/24 09:32:45;;;;;;;13.10;9.45;;;;;;;27.90;nan;95690.06;5076239;28;20241;-72
2022/10/24 09:35:19;;;;;;;19.52;8.60;;;;;;;27.58;nan;95706.06;5077172;28;20210;-71
2022/10/24 09:37:48;;;;;;;15.90;9.65;;;;;;;26.45;nan;95691.78;5076514;28;20296;-73
2022/10/24 09:40:22;;;;;;;14.82;9.07;;;;;;;25.58;nan;95694.72;5077197;28;20775;-73
2022/10/24 09:42:55;;;;;;;14.73;8.45;;;;;;;25.13;nan;95696.72;5076516;28;20675;-72
2022/10/24 09:45:32;;;;;;;14.73;8.70;;;;;;;24.53;nan;95686.81;5077605;28;20198;-71
2022/10/24 09:48:01;;;;;;;9.65;8.40;;;;;;;24.05;nan;95687.06;5076859;28;20277;-73
2022/10/24 09:50:31;;;;;;;13.68;8.75;;;;;;;23.46;nan;95692.41;5077118;28;20236;-74
2022/10/24 09:52:59;;;;;;;11.52;9.10;;;;;;;23.43;nan;95690.03;5076074;28;20228;-71
2022/10/24 09:55:30;;;;;;;19.13;9.23;;;;;;;23.62;nan;95685.16;5076789;28;20679;-73
2022/10/24 09:58:02;;;;;;;15.23;9.18;;;;;;;23.34;nan;95686.34;5079425;28;20297;-73
2022/10/24 10:00:32;;;;;;;14.60;9.27;;;;;;;23.17;nan;95691.13;5077861;28;20209;-71
2022/10/24 10:03:02;;;;;;;18.02;9.95;;;;;;;22.84;nan;95677.09;5075712;28;20739;-74
2022/10/24 10:05:44;;;;;;;16.35;9.15;;;;;;;22.69;nan;95678.16;5076790;28;20202;-71
2022/10/24 10:08:18;;;;;;;12.48;10.50;;;;;;;22.75;nan;95672.56;5079045;28;20618;-74
2022/10/24 10:11:00;;;;;;;14.00;9.25;;;;;;;22.76;nan;95674.22;5076716;28;20205;-73
2022/10/24 10:13:28;;;;;;;14.05;9.25;;;;;;;22.89;nan;95669.00;5074202;28;20259;-71
2022/10/24 10:15:56;;;;;;;19.20;8.88;;;;;;;22.84;nan;95679.69;5075614;28;20340;-72
2022/10/24 10:18:33;;;;;;;13.10;8.48;;;;;;;22.71;nan;95663.34;5075860;28;20205;-72
2022/10/24 10:21:06;;;;;;;12.38;9.32;;;;;;;22.55;nan;95662.75;5075719;28;20224;-72
2022/10/24 10:23:35;;;;;;;20.30;9.52;;;;;;;22.25;nan;95663.19;5074575;28;20296;-72
2022/10/24 10:26:05;;;;;;;21.23;10.55;;;;;;;22.05;nan;95656.78;5075136;28;20209;-72
2022/10/24 10:28:34;;;;;;;17.77;9.88;;;;;;;22.36;nan;95663.25;5075198;28;20274;-73
2022/10/24 10:31:01;;;;;;;17.55;10.35;;;;;;;22.29;nan;95660.25;5074019;28;20255;-73
2022/10/24 10:33:36;;;;;;;23.40;11.10;;;;;;;22.06;nan;95653.28;5073614;28;20310;-71
2022/10/24 10:36:11;;;;;;;29.17;10.23;;;;;;;22.26;nan;95646.72;5074366;28;20274;-71
2022/10/24 10:38:51;;;;;;;12.88;9.82;;;;;;;22.34;nan;95645.22;5074847;28;20212;-72
2022/10/24 10:41:32;;;;;;;21.63;10.93;;;;;;;22.61;nan;95641.63;5074317;28;20639;-71
2022/10/24 10:44:15;;;;;;;22.33;9.98;;;;;;;22.86;nan;95635.50;5074136;28;20719;-71
2022/10/24 10:46:52;;;;;;;20.70;8.88;;;;;;;22.81;nan;95638.44;5074732;28;20258;-72
2022/10/24 10:49:27;;;;;;;14.27;9.25;;;;;;;22.91;nan;95636.00;5075115;28;20231;-72
2022/10/24 10:51:58;;;;;;;19.88;9.45;;;;;;;22.60;nan;95627.00;5074844;28;20683;-72
2022/10/24 10:54:57;;;;;;;19.23;9.63;;;;;;;22.70;nan;95626.25;5074449;28;20221;-72
2022/10/24 10:57:32;;;;;;;25.67;9.30;;;;;;;22.70;nan;95621.06;5052688;28;20213;-71
2022/10/24 11:00:06;;;;;;;17.88;9.98;;;;;;;22.91;nan;95616.09;5053606;28;20209;-71
2022/10/24 11:03:02;;;;;;;19.67;10.50;;;;;;;23.08;nan;95617.44;5052744;28;20688;-71
2022/10/24 11:05:46;;;;;;;27.25;11.93;;;;;;;23.13;nan;95614.50;5052997;28;20210;-71
2022/10/24 11:08:42;;;;;;;14.30;9.98;;;;;;;23.05;nan;95613.31;5052924;28;20288;-71
2022/10/24 11:11:16;;;;;;;20.33;11.43;;;;;;;22.82;nan;95606.41;5053592;28;20214;-72
2022/10/24 11:13:48;;;;;;;31.13;14.35;;;;;;;22.99;nan;95602.59;5047622;28;20226;-71
2022/10/24 11:16:20;;;;;;;28.35;15.68;;;;;;;23.19;nan;95595.91;5053351;28;20218;-72
2022/10/24 11:18:50;;;;;;;21.80;10.75;;;;;;;22.82;nan;95593.44;5053286;28;20221;-72
2022/10/24 11:21:20;;;;;;;23.65;12.05;;;;;;;22.96;nan;95593.25;5052524;28;20214;-73
2022/10/24 11:23:53;;;;;;;18.40;10.35;;;;;;;23.16;nan;95594.38;5053078;28;20195;-70
2022/10/24 11:26:26;;;;;;;13.23;9.48;;;;;;;23.06;nan;95586.44;5054101;28;20283;-73
2022/10/24 11:28:59;;;;;;;19.75;9.82;;;;;;;22.89;nan;95581.69;5055133;28;20216;-73
2022/10/24 11:31:30;;;;;;;17.10;9.13;;;;;;;22.94;nan;95579.59;5055210;28;20210;-73
2022/10/24 11:34:03;;;;;;;20.50;9.02;;;;;;;23.00;nan;95575.72;5055887;28;20754;-73
2022/10/24 11:36:36;;;;;;;18.80;8.70;;;;;;;23.07;nan;95569.94;5053575;28;20263;-72
2022/10/24 11:39:13;;;;;;;18.35;9.20;;;;;;;23.26;nan;95574.56;5052327;28;20250;-72
2022/10/24 11:41:48;;;;;;;24.60;8.80;;;;;;;23.55;nan;95562.00;5053151;28;20217;-73
2022/10/24 11:44:34;;;;;;;16.70;7.30;;;;;;;23.41;nan;95557.03;5054730;28;20286;-74
2022/10/24 11:47:11;;;;;;;16.25;7.72;;;;;;;23.59;nan;95560.00;5045625;28;20295;-73
2022/10/24 11:49:42;;;;;;;13.57;7.70;;;;;;;23.68;nan;95552.34;5054554;28;20275;-74
2022/10/24 11:52:17;;;;;;;15.43;7.72;;;;;;;23.79;nan;95555.88;5054972;28;20692;-73
2022/10/24 11:54:51;;;;;;;17.20;7.93;;;;;;;23.66;nan;95551.63;5055014;28;20256;-74